createdAt,value
2022-12-31T00:07:03.986Z,42.60
2022-12-31T00:22:05.444Z,42.60
2022-12-31T00:37:06.913Z,42.70
2022-12-31T00:52:08.375Z,42.80
2022-12-31T01:07:09.837Z,42.70
2022-12-31T01:22:11.316Z,42.70
2022-12-31T01:37:12.782Z,42.70
2022-12-31T01:52:14.252Z,42.80
2022-12-31T02:07:15.737Z,42.80
2022-12-31T02:22:17.227Z,42.90
2022-12-31T02:37:18.771Z,42.90
2022-12-31T02:52:20.244Z,42.90
2022-12-31T03:07:21.784Z,43.00
2022-12-31T03:22:23.292Z,43.00
2022-12-31T03:37:24.804Z,43.00
2022-12-31T03:52:26.289Z,43.00
2022-12-31T04:07:27.767Z,43.00
2022-12-31T04:22:29.249Z,43.10
2022-12-31T04:37:30.730Z,43.10
2022-12-31T04:52:37.048Z,43.20
2022-12-31T05:07:41.897Z,43.20
2022-12-31T05:22:43.391Z,43.20
2022-12-31T05:37:44.852Z,43.30
2022-12-31T05:52:47.779Z,43.40
2022-12-31T06:07:49.383Z,43.50
2022-12-31T06:22:50.838Z,43.40
2022-12-31T06:37:52.296Z,43.50
2022-12-31T06:52:53.790Z,43.50
2022-12-31T07:07:55.275Z,43.50
2022-12-31T07:22:56.746Z,43.60
2022-12-31T07:37:58.235Z,43.60
2022-12-31T07:52:59.686Z,43.70
2022-12-31T08:08:01.210Z,43.70
2022-12-31T08:23:03.011Z,43.70
2022-12-31T08:38:04.483Z,43.70
2022-12-31T08:53:06.277Z,44.40
2022-12-31T09:08:07.725Z,44.40
2022-12-31T09:23:09.191Z,44.60
2022-12-31T09:38:11.790Z,46.00
2022-12-31T09:53:13.561Z,45.00
2022-12-31T10:08:15.013Z,44.80
2022-12-31T10:23:16.498Z,44.70
2022-12-31T10:38:17.947Z,44.70
2022-12-31T10:53:19.402Z,44.70
2022-12-31T11:08:20.859Z,44.60
2022-12-31T11:23:22.335Z,44.50
2022-12-31T11:38:23.803Z,45.10
2022-12-31T11:53:25.288Z,45.20
2022-12-31T12:08:26.762Z,45.40
2022-12-31T12:23:28.252Z,45.40
2022-12-31T12:38:29.809Z,45.50
2022-12-31T12:53:31.270Z,45.80
2022-12-31T13:08:32.723Z,45.70
2022-12-31T13:23:39.455Z,45.80
2022-12-31T13:38:41.383Z,45.80
2022-12-31T13:53:42.858Z,46.10
2022-12-31T14:08:44.326Z,46.10
2022-12-31T14:23:45.786Z,46.20
2022-12-31T14:38:47.235Z,46.20
2022-12-31T14:53:48.717Z,46.10
2022-12-31T15:08:51.323Z,46.10
2022-12-31T15:23:52.778Z,46.20
2022-12-31T15:38:54.296Z,46.10
2022-12-31T15:53:55.788Z,46.30
2022-12-31T16:08:57.257Z,46.50
2022-12-31T16:23:58.731Z,47.00
2022-12-31T16:39:00.192Z,47.70
2022-12-31T16:54:01.692Z,48.00
2022-12-31T17:09:03.169Z,48.10
2022-12-31T17:24:04.651Z,48.30
2022-12-31T17:39:06.120Z,48.40
2022-12-31T17:54:07.581Z,48.40
2022-12-31T18:09:09.055Z,48.50
2022-12-31T18:24:10.515Z,48.50
2022-12-31T18:39:11.977Z,48.70
2022-12-31T18:54:13.535Z,48.50
2022-12-31T19:09:43.431Z,48.40
2022-12-31T19:24:36.507Z,48.60
2022-12-31T19:39:38.482Z,48.30
2022-12-31T19:54:39.946Z,48.50
2022-12-31T20:09:41.442Z,48.30
2022-12-31T20:24:42.905Z,48.20
2022-12-31T20:39:44.392Z,48.10
2022-12-31T20:54:45.941Z,48.40
2022-12-31T21:09:47.422Z,47.60
2022-12-31T21:24:49.056Z,47.40
2022-12-31T21:39:50.547Z,47.00
2022-12-31T21:54:52.003Z,47.10
2022-12-31T22:09:53.472Z,47.00
2022-12-31T22:24:57.891Z,46.90
2022-12-31T22:39:59.375Z,46.80
2022-12-31T22:55:00.890Z,46.80
2022-12-31T23:10:02.338Z,46.80
2022-12-31T23:25:03.953Z,46.50
2022-12-31T23:40:05.414Z,46.60
2022-12-31T23:55:06.883Z,46.40
